sensor_id;sensor_type;location;lat;lon;timestamp;P1;durP1;ratioP1;P2;durP2;ratioP2
69854;SDS011;57146;48.140;16.304;2023-07-24T00:01:07;5.60;;;1.63;;
69854;SDS011;57146;48.140;16.304;2023-07-24T00:03:34;5.47;;;1.77;;
69854;SDS011;57146;48.140;16.304;2023-07-24T00:06:01;6.03;;;1.65;;
69854;SDS011;57146;48.140;16.304;2023-07-24T00:08:29;7.25;;;1.98;;
69854;SDS011;57146;48.140;16.304;2023-07-24T00:10:56;4.90;;;1.80;;
69854;SDS011;57146;48.140;16.304;2023-07-24T00:13:23;6.57;;;2.00;;
69854;SDS011;57146;48.140;16.304;2023-07-24T00:15:51;5.55;;;1.70;;
69854;SDS011;57146;48.140;16.304;2023-07-24T00:18:18;6.55;;;1.88;;
69854;SDS011;57146;48.140;16.304;2023-07-24T00:20:46;8.57;;;1.73;;
69854;SDS011;57146;48.140;16.304;2023-07-24T00:23:13;5.30;;;1.97;;
69854;SDS011;57146;48.140;16.304;2023-07-24T00:25:40;5.20;;;1.60;;
69854;SDS011;57146;48.140;16.304;2023-07-24T00:28:07;5.90;;;1.80;;
69854;SDS011;57146;48.140;16.304;2023-07-24T00:30:37;5.10;;;1.63;;
69854;SDS011;57146;48.140;16.304;2023-07-24T00:33:04;6.15;;;1.92;;
69854;SDS011;57146;48.140;16.304;2023-07-24T00:35:31;5.13;;;1.88;;
69854;SDS011;57146;48.140;16.304;2023-07-24T00:37:58;5.93;;;2.15;;
69854;SDS011;57146;48.140;16.304;2023-07-24T00:40:26;4.78;;;1.55;;
69854;SDS011;57146;48.140;16.304;2023-07-24T00:42:53;4.82;;;2.10;;
69854;SDS011;57146;48.140;16.304;2023-07-24T00:45:22;4.80;;;1.80;;
69854;SDS011;57146;48.140;16.304;2023-07-24T00:47:50;6.13;;;2.10;;
69854;SDS011;57146;48.140;16.304;2023-07-24T00:50:18;5.88;;;1.88;;
69854;SDS011;57146;48.140;16.304;2023-07-24T00:52:45;6.50;;;2.30;;
69854;SDS011;57146;48.140;16.304;2023-07-24T00:55:16;7.13;;;2.25;;
69854;SDS011;57146;48.140;16.304;2023-07-24T00:57:43;5.60;;;2.08;;
69854;SDS011;57146;48.140;16.304;2023-07-24T01:00:11;6.35;;;1.92;;
69854;SDS011;57146;48.140;16.304;2023-07-24T01:02:38;5.50;;;1.90;;
69854;SDS011;57146;48.140;16.304;2023-07-24T01:05:05;7.45;;;2.05;;
69854;SDS011;57146;48.140;16.304;2023-07-24T01:07:35;4.93;;;1.77;;
69854;SDS011;57146;48.140;16.304;2023-07-24T01:10:02;6.63;;;1.98;;
69854;SDS011;57146;48.140;16.304;2023-07-24T01:13:30;5.07;;;1.77;;
69854;SDS011;57146;48.140;16.304;2023-07-24T01:16:00;4.95;;;1.73;;
69854;SDS011;57146;48.140;16.304;2023-07-24T01:18:35;5.55;;;1.58;;
69854;SDS011;57146;48.140;16.304;2023-07-24T01:21:06;6.55;;;1.67;;
69854;SDS011;57146;48.140;16.304;2023-07-24T01:26:15;6.82;;;1.85;;
69854;SDS011;57146;48.140;16.304;2023-07-24T01:28:43;4.90;;;1.60;;
69854;SDS011;57146;48.140;16.304;2023-07-24T01:31:10;5.25;;;1.80;;
69854;SDS011;57146;48.140;16.304;2023-07-24T01:33:42;6.07;;;1.83;;
69854;SDS011;57146;48.140;16.304;2023-07-24T01:36:10;5.15;;;1.85;;
69854;SDS011;57146;48.140;16.304;2023-07-24T01:38:40;5.15;;;1.60;;
69854;SDS011;57146;48.140;16.304;2023-07-24T01:41:08;7.22;;;2.15;;
69854;SDS011;57146;48.140;16.304;2023-07-24T01:43:36;5.95;;;1.95;;
69854;SDS011;57146;48.140;16.304;2023-07-24T01:46:04;5.47;;;1.85;;
69854;SDS011;57146;48.140;16.304;2023-07-24T01:48:31;5.80;;;2.10;;
69854;SDS011;57146;48.140;16.304;2023-07-24T01:50:58;4.78;;;1.33;;
69854;SDS011;57146;48.140;16.304;2023-07-24T01:53:25;5.82;;;1.77;;
69854;SDS011;57146;48.140;16.304;2023-07-24T01:55:52;7.57;;;2.08;;
69854;SDS011;57146;48.140;16.304;2023-07-24T01:58:19;4.70;;;1.40;;
69854;SDS011;57146;48.140;16.304;2023-07-24T02:00:46;6.07;;;1.90;;
69854;SDS011;57146;48.140;16.304;2023-07-24T02:03:14;5.70;;;1.75;;
69854;SDS011;57146;48.140;16.304;2023-07-24T02:05:48;5.25;;;1.65;;
69854;SDS011;57146;48.140;16.304;2023-07-24T02:08:17;5.30;;;1.70;;
69854;SDS011;57146;48.140;16.304;2023-07-24T02:10:47;5.18;;;1.70;;
69854;SDS011;57146;48.140;16.304;2023-07-24T02:13:15;4.90;;;1.48;;
69854;SDS011;57146;48.140;16.304;2023-07-24T02:15:48;4.18;;;1.42;;
69854;SDS011;57146;48.140;16.304;2023-07-24T02:18:15;5.22;;;1.80;;
69854;SDS011;57146;48.140;16.304;2023-07-24T02:20:48;5.65;;;1.73;;
69854;SDS011;57146;48.140;16.304;2023-07-24T02:23:19;6.68;;;1.80;;
69854;SDS011;57146;48.140;16.304;2023-07-24T02:25:46;5.78;;;1.67;;
69854;SDS011;57146;48.140;16.304;2023-07-24T02:28:16;5.80;;;1.67;;
69854;SDS011;57146;48.140;16.304;2023-07-24T02:30:44;4.78;;;1.63;;
69854;SDS011;57146;48.140;16.304;2023-07-24T02:33:37;4.85;;;1.70;;
69854;SDS011;57146;48.140;16.304;2023-07-24T02:36:05;5.57;;;1.70;;
69854;SDS011;57146;48.140;16.304;2023-07-24T02:38:33;5.63;;;1.42;;
69854;SDS011;57146;48.140;16.304;2023-07-24T02:41:00;9.30;;;1.83;;
69854;SDS011;57146;48.140;16.304;2023-07-24T02:43:27;6.63;;;1.75;;
69854;SDS011;57146;48.140;16.304;2023-07-24T02:45:54;6.15;;;1.80;;
69854;SDS011;57146;48.140;16.304;2023-07-24T02:48:22;8.05;;;1.90;;
69854;SDS011;57146;48.140;16.304;2023-07-24T02:50:51;5.32;;;1.80;;
69854;SDS011;57146;48.140;16.304;2023-07-24T02:53:18;6.80;;;1.90;;
69854;SDS011;57146;48.140;16.304;2023-07-24T02:55:45;5.75;;;1.40;;
69854;SDS011;57146;48.140;16.304;2023-07-24T02:58:12;5.10;;;1.40;;
69854;SDS011;57146;48.140;16.304;2023-07-24T03:00:40;8.23;;;1.80;;
69854;SDS011;57146;48.140;16.304;2023-07-24T03:03:07;7.95;;;1.80;;
69854;SDS011;57146;48.140;16.304;2023-07-24T03:05:34;5.35;;;1.23;;
69854;SDS011;57146;48.140;16.304;2023-07-24T03:08:01;6.55;;;1.88;;
69854;SDS011;57146;48.140;16.304;2023-07-24T03:10:29;5.75;;;1.60;;
69854;SDS011;57146;48.140;16.304;2023-07-24T03:12:56;5.35;;;1.40;;
69854;SDS011;57146;48.140;16.304;2023-07-24T03:15:24;4.80;;;1.45;;
69854;SDS011;57146;48.140;16.304;2023-07-24T03:17:51;7.22;;;1.95;;
69854;SDS011;57146;48.140;16.304;2023-07-24T03:20:19;4.38;;;1.38;;
69854;SDS011;57146;48.140;16.304;2023-07-24T03:22:46;5.07;;;1.38;;
69854;SDS011;57146;48.140;16.304;2023-07-24T03:25:13;5.65;;;1.80;;
69854;SDS011;57146;48.140;16.304;2023-07-24T03:27:40;4.93;;;1.50;;
69854;SDS011;57146;48.140;16.304;2023-07-24T03:30:08;5.35;;;1.95;;
69854;SDS011;57146;48.140;16.304;2023-07-24T03:32:36;8.05;;;2.00;;
69854;SDS011;57146;48.140;16.304;2023-07-24T03:35:04;5.85;;;1.90;;
69854;SDS011;57146;48.140;16.304;2023-07-24T03:37:33;6.30;;;1.73;;
69854;SDS011;57146;48.140;16.304;2023-07-24T03:40:01;5.22;;;1.73;;
69854;SDS011;57146;48.140;16.304;2023-07-24T03:42:30;5.55;;;1.85;;
69854;SDS011;57146;48.140;16.304;2023-07-24T03:44:58;7.20;;;1.98;;
69854;SDS011;57146;48.140;16.304;2023-07-24T03:47:25;5.75;;;1.85;;
69854;SDS011;57146;48.140;16.304;2023-07-24T03:49:52;5.88;;;2.08;;
69854;SDS011;57146;48.140;16.304;2023-07-24T03:52:19;6.07;;;1.92;;
69854;SDS011;57146;48.140;16.304;2023-07-24T03:54:46;6.90;;;2.00;;
69854;SDS011;57146;48.140;16.304;2023-07-24T03:57:13;6.15;;;1.92;;
69854;SDS011;57146;48.140;16.304;2023-07-24T03:59:42;5.90;;;1.88;;
69854;SDS011;57146;48.140;16.304;2023-07-24T04:02:09;6.65;;;2.20;;
69854;SDS011;57146;48.140;16.304;2023-07-24T04:04:36;6.20;;;2.05;;
69854;SDS011;57146;48.140;16.304;2023-07-24T04:07:04;8.82;;;2.38;;
69854;SDS011;57146;48.140;16.304;2023-07-24T04:09:31;6.25;;;2.08;;
69854;SDS011;57146;48.140;16.304;2023-07-24T04:12:00;5.57;;;2.00;;
69854;SDS011;57146;48.140;16.304;2023-07-24T04:14:27;6.45;;;2.08;;
69854;SDS011;57146;48.140;16.304;2023-07-24T04:16:54;6.35;;;1.92;;
69854;SDS011;57146;48.140;16.304;2023-07-24T04:19:21;9.07;;;2.10;;
69854;SDS011;57146;48.140;16.304;2023-07-24T04:21:48;7.15;;;2.33;;
69854;SDS011;57146;48.140;16.304;2023-07-24T04:24:15;7.07;;;2.17;;
69854;SDS011;57146;48.140;16.304;2023-07-24T04:26:43;6.45;;;2.05;;
69854;SDS011;57146;48.140;16.304;2023-07-24T04:29:09;6.03;;;2.10;;
69854;SDS011;57146;48.140;16.304;2023-07-24T04:31:37;5.57;;;1.92;;
69854;SDS011;57146;48.140;16.304;2023-07-24T04:34:04;6.35;;;2.00;;
69854;SDS011;57146;48.140;16.304;2023-07-24T04:36:31;5.78;;;2.05;;
69854;SDS011;57146;48.140;16.304;2023-07-24T04:38:59;6.13;;;1.98;;
69854;SDS011;57146;48.140;16.304;2023-07-24T04:41:26;6.88;;;1.80;;
69854;SDS011;57146;48.140;16.304;2023-07-24T04:43:53;6.05;;;1.85;;
69854;SDS011;57146;48.140;16.304;2023-07-24T04:46:20;9.02;;;2.13;;
69854;SDS011;57146;48.140;16.304;2023-07-24T04:48:47;8.02;;;2.13;;
69854;SDS011;57146;48.140;16.304;2023-07-24T04:51:15;6.30;;;2.30;;
69854;SDS011;57146;48.140;16.304;2023-07-24T04:53:42;7.28;;;2.10;;
69854;SDS011;57146;48.140;16.304;2023-07-24T04:56:11;8.90;;;2.05;;
69854;SDS011;57146;48.140;16.304;2023-07-24T04:58:38;7.50;;;1.92;;
69854;SDS011;57146;48.140;16.304;2023-07-24T05:01:05;5.20;;;1.90;;
69854;SDS011;57146;48.140;16.304;2023-07-24T05:03:33;7.03;;;1.90;;
69854;SDS011;57146;48.140;16.304;2023-07-24T05:06:00;5.78;;;2.05;;
69854;SDS011;57146;48.140;16.304;2023-07-24T05:08:31;10.35;;;2.50;;
69854;SDS011;57146;48.140;16.304;2023-07-24T05:10:58;6.55;;;2.25;;
69854;SDS011;57146;48.140;16.304;2023-07-24T05:13:26;7.10;;;2.80;;
69854;SDS011;57146;48.140;16.304;2023-07-24T05:15:53;8.02;;;2.97;;
69854;SDS011;57146;48.140;16.304;2023-07-24T05:18:21;8.70;;;3.15;;
69854;SDS011;57146;48.140;16.304;2023-07-24T05:20:48;7.45;;;2.88;;
69854;SDS011;57146;48.140;16.304;2023-07-24T05:23:16;11.27;;;2.88;;
69854;SDS011;57146;48.140;16.304;2023-07-24T05:25:43;8.05;;;2.85;;
69854;SDS011;57146;48.140;16.304;2023-07-24T05:28:10;6.25;;;2.10;;
69854;SDS011;57146;48.140;16.304;2023-07-24T05:30:37;9.88;;;3.05;;
69854;SDS011;57146;48.140;16.304;2023-07-24T05:33:04;7.68;;;3.20;;
69854;SDS011;57146;48.140;16.304;2023-07-24T05:35:31;7.93;;;2.83;;
69854;SDS011;57146;48.140;16.304;2023-07-24T05:37:58;7.97;;;2.50;;
69854;SDS011;57146;48.140;16.304;2023-07-24T05:40:57;13.68;;;3.30;;
69854;SDS011;57146;48.140;16.304;2023-07-24T05:43:27;10.73;;;3.17;;
69854;SDS011;57146;48.140;16.304;2023-07-24T05:45:56;10.13;;;3.20;;
69854;SDS011;57146;48.140;16.304;2023-07-24T05:48:24;10.13;;;3.38;;
69854;SDS011;57146;48.140;16.304;2023-07-24T05:50:51;9.65;;;3.30;;
69854;SDS011;57146;48.140;16.304;2023-07-24T05:53:22;8.80;;;3.08;;
69854;SDS011;57146;48.140;16.304;2023-07-24T05:56:00;9.60;;;3.22;;
69854;SDS011;57146;48.140;16.304;2023-07-24T05:58:28;8.18;;;2.92;;
69854;SDS011;57146;48.140;16.304;2023-07-24T06:00:56;10.43;;;3.40;;
69854;SDS011;57146;48.140;16.304;2023-07-24T06:03:23;9.25;;;2.95;;
69854;SDS011;57146;48.140;16.304;2023-07-24T06:05:51;9.50;;;2.85;;
69854;SDS011;57146;48.140;16.304;2023-07-24T06:08:20;6.93;;;2.67;;
69854;SDS011;57146;48.140;16.304;2023-07-24T06:10:48;8.18;;;3.00;;
69854;SDS011;57146;48.140;16.304;2023-07-24T06:13:17;9.57;;;2.83;;
69854;SDS011;57146;48.140;16.304;2023-07-24T06:15:47;12.25;;;2.90;;
69854;SDS011;57146;48.140;16.304;2023-07-24T06:18:15;11.23;;;3.05;;
69854;SDS011;57146;48.140;16.304;2023-07-24T06:20:44;8.18;;;3.10;;
69854;SDS011;57146;48.140;16.304;2023-07-24T06:23:11;9.55;;;3.13;;
69854;SDS011;57146;48.140;16.304;2023-07-24T06:25:38;10.10;;;3.15;;
69854;SDS011;57146;48.140;16.304;2023-07-24T06:28:05;7.43;;;2.72;;
69854;SDS011;57146;48.140;16.304;2023-07-24T06:30:32;7.80;;;2.97;;
69854;SDS011;57146;48.140;16.304;2023-07-24T06:33:02;8.45;;;2.95;;
69854;SDS011;57146;48.140;16.304;2023-07-24T06:35:29;8.30;;;2.90;;
69854;SDS011;57146;48.140;16.304;2023-07-24T06:38:00;8.38;;;3.25;;
69854;SDS011;57146;48.140;16.304;2023-07-24T06:40:27;8.88;;;3.13;;
69854;SDS011;57146;48.140;16.304;2023-07-24T06:42:54;7.47;;;2.88;;
69854;SDS011;57146;48.140;16.304;2023-07-24T06:45:26;8.13;;;2.78;;
69854;SDS011;57146;48.140;16.304;2023-07-24T06:47:53;10.27;;;3.63;;
69854;SDS011;57146;48.140;16.304;2023-07-24T06:50:21;8.43;;;2.88;;
69854;SDS011;57146;48.140;16.304;2023-07-24T06:52:49;12.35;;;3.30;;
69854;SDS011;57146;48.140;16.304;2023-07-24T06:55:15;6.82;;;2.90;;
69854;SDS011;57146;48.140;16.304;2023-07-24T06:57:43;8.60;;;3.08;;
69854;SDS011;57146;48.140;16.304;2023-07-24T07:00:10;6.80;;;3.27;;
69854;SDS011;57146;48.140;16.304;2023-07-24T07:02:39;8.43;;;3.05;;
69854;SDS011;57146;48.140;16.304;2023-07-24T07:05:07;9.00;;;3.10;;
69854;SDS011;57146;48.140;16.304;2023-07-24T07:07:34;8.05;;;2.97;;
69854;SDS011;57146;48.140;16.304;2023-07-24T07:10:01;7.45;;;3.08;;
69854;SDS011;57146;48.140;16.304;2023-07-24T07:12:29;10.43;;;3.63;;
69854;SDS011;57146;48.140;16.304;2023-07-24T07:14:56;9.40;;;3.08;;
69854;SDS011;57146;48.140;16.304;2023-07-24T07:17:23;10.40;;;3.30;;
69854;SDS011;57146;48.140;16.304;2023-07-24T07:19:51;7.40;;;3.00;;
69854;SDS011;57146;48.140;16.304;2023-07-24T07:22:17;7.45;;;2.92;;
69854;SDS011;57146;48.140;16.304;2023-07-24T07:24:44;7.23;;;3.00;;
69854;SDS011;57146;48.140;16.304;2023-07-24T07:27:13;8.50;;;3.47;;
69854;SDS011;57146;48.140;16.304;2023-07-24T07:29:40;6.85;;;3.10;;
69854;SDS011;57146;48.140;16.304;2023-07-24T07:32:07;6.47;;;2.80;;
69854;SDS011;57146;48.140;16.304;2023-07-24T07:34:34;8.35;;;3.10;;
69854;SDS011;57146;48.140;16.304;2023-07-24T07:37:01;13.43;;;3.30;;
69854;SDS011;57146;48.140;16.304;2023-07-24T07:39:53;15.75;;;4.28;;
69854;SDS011;57146;48.140;16.304;2023-07-24T07:42:22;6.95;;;3.65;;
69854;SDS011;57146;48.140;16.304;2023-07-24T07:44:53;10.23;;;3.80;;
69854;SDS011;57146;48.140;16.304;2023-07-24T07:47:20;7.22;;;3.50;;
69854;SDS011;57146;48.140;16.304;2023-07-24T07:49:47;9.93;;;3.50;;
69854;SDS011;57146;48.140;16.304;2023-07-24T07:52:15;9.50;;;3.63;;
69854;SDS011;57146;48.140;16.304;2023-07-24T07:54:46;9.25;;;3.92;;
69854;SDS011;57146;48.140;16.304;2023-07-24T07:57:14;9.88;;;3.50;;
69854;SDS011;57146;48.140;16.304;2023-07-24T08:00:06;9.07;;;3.85;;
69854;SDS011;57146;48.140;16.304;2023-07-24T08:02:34;7.47;;;3.93;;
69854;SDS011;57146;48.140;16.304;2023-07-24T08:05:01;8.07;;;3.85;;
69854;SDS011;57146;48.140;16.304;2023-07-24T08:07:40;9.00;;;3.60;;
69854;SDS011;57146;48.140;16.304;2023-07-24T08:10:07;7.60;;;3.72;;
69854;SDS011;57146;48.140;16.304;2023-07-24T08:12:36;8.95;;;4.05;;
69854;SDS011;57146;48.140;16.304;2023-07-24T08:15:03;8.10;;;4.47;;
69854;SDS011;57146;48.140;16.304;2023-07-24T08:17:31;6.30;;;3.75;;
69854;SDS011;57146;48.140;16.304;2023-07-24T08:19:58;6.75;;;3.90;;
69854;SDS011;57146;48.140;16.304;2023-07-24T08:22:25;9.73;;;4.10;;
69854;SDS011;57146;48.140;16.304;2023-07-24T08:24:53;7.88;;;4.10;;
69854;SDS011;57146;48.140;16.304;2023-07-24T08:27:22;7.70;;;4.20;;
69854;SDS011;57146;48.140;16.304;2023-07-24T08:29:51;9.15;;;4.35;;
69854;SDS011;57146;48.140;16.304;2023-07-24T08:32:18;11.65;;;4.40;;
69854;SDS011;57146;48.140;16.304;2023-07-24T08:34:46;8.60;;;3.97;;
69854;SDS011;57146;48.140;16.304;2023-07-24T08:37:13;9.95;;;4.60;;
69854;SDS011;57146;48.140;16.304;2023-07-24T08:39:40;9.67;;;4.63;;
69854;SDS011;57146;48.140;16.304;2023-07-24T08:42:10;8.52;;;4.82;;
69854;SDS011;57146;48.140;16.304;2023-07-24T08:44:40;9.15;;;5.00;;
69854;SDS011;57146;48.140;16.304;2023-07-24T08:47:10;9.30;;;4.55;;
69854;SDS011;57146;48.140;16.304;2023-07-24T08:49:38;9.30;;;4.55;;
69854;SDS011;57146;48.140;16.304;2023-07-24T08:52:06;8.47;;;4.77;;
69854;SDS011;57146;48.140;16.304;2023-07-24T08:54:38;12.68;;;4.32;;
69854;SDS011;57146;48.140;16.304;2023-07-24T08:57:12;18.88;;;4.80;;
69854;SDS011;57146;48.140;16.304;2023-07-24T08:59:41;8.82;;;4.00;;
69854;SDS011;57146;48.140;16.304;2023-07-24T09:02:11;7.32;;;4.03;;
69854;SDS011;57146;48.140;16.304;2023-07-24T09:04:38;7.77;;;4.30;;
69854;SDS011;57146;48.140;16.304;2023-07-24T09:07:05;8.23;;;4.38;;
69854;SDS011;57146;48.140;16.304;2023-07-24T09:09:33;12.73;;;4.20;;
69854;SDS011;57146;48.140;16.304;2023-07-24T09:12:00;8.43;;;4.35;;
69854;SDS011;57146;48.140;16.304;2023-07-24T09:14:27;7.63;;;4.13;;
69854;SDS011;57146;48.140;16.304;2023-07-24T09:17:06;8.00;;;4.50;;
69854;SDS011;57146;48.140;16.304;2023-07-24T09:19:36;7.80;;;4.18;;
69854;SDS011;57146;48.140;16.304;2023-07-24T09:22:14;7.95;;;4.53;;
69854;SDS011;57146;48.140;16.304;2023-07-24T09:24:57;7.63;;;4.50;;
69854;SDS011;57146;48.140;16.304;2023-07-24T09:27:28;9.45;;;4.68;;
69854;SDS011;57146;48.140;16.304;2023-07-24T09:30:02;9.83;;;4.50;;
69854;SDS011;57146;48.140;16.304;2023-07-24T09:32:51;9.02;;;4.65;;
69854;SDS011;57146;48.140;16.304;2023-07-24T09:35:19;10.82;;;5.10;;
69854;SDS011;57146;48.140;16.304;2023-07-24T09:37:47;8.70;;;5.00;;
69854;SDS011;57146;48.140;16.304;2023-07-24T09:40:14;12.63;;;5.25;;
69854;SDS011;57146;48.140;16.304;2023-07-24T09:42:42;8.67;;;4.80;;
69854;SDS011;57146;48.140;16.304;2023-07-24T09:45:29;9.57;;;4.85;;
69854;SDS011;57146;48.140;16.304;2023-07-24T09:47:56;7.15;;;4.70;;
69854;SDS011;57146;48.140;16.304;2023-07-24T09:50:34;7.45;;;4.53;;
69854;SDS011;57146;48.140;16.304;2023-07-24T09:53:01;8.07;;;4.13;;
69854;SDS011;57146;48.140;16.304;2023-07-24T09:55:34;9.13;;;4.87;;
69854;SDS011;57146;48.140;16.304;2023-07-24T09:58:08;13.20;;;4.88;;
69854;SDS011;57146;48.140;16.304;2023-07-24T10:01:01;8.18;;;4.70;;
69854;SDS011;57146;48.140;16.304;2023-07-24T10:03:29;6.97;;;4.25;;
69854;SDS011;57146;48.140;16.304;2023-07-24T10:05:58;9.07;;;5.35;;
69854;SDS011;57146;48.140;16.304;2023-07-24T10:08:25;7.13;;;4.77;;
69854;SDS011;57146;48.140;16.304;2023-07-24T10:10:53;9.20;;;5.00;;
69854;SDS011;57146;48.140;16.304;2023-07-24T10:13:21;7.43;;;4.70;;
69854;SDS011;57146;48.140;16.304;2023-07-24T10:15:52;7.75;;;4.97;;
69854;SDS011;57146;48.140;16.304;2023-07-24T10:18:26;9.90;;;5.40;;
69854;SDS011;57146;48.140;16.304;2023-07-24T10:21:25;10.70;;;5.50;;
69854;SDS011;57146;48.140;16.304;2023-07-24T10:24:17;11.23;;;5.40;;
69854;SDS011;57146;48.140;16.304;2023-07-24T10:27:05;10.63;;;5.15;;
69854;SDS011;57146;48.140;16.304;2023-07-24T10:29:35;7.75;;;5.00;;
69854;SDS011;57146;48.140;16.304;2023-07-24T10:32:16;9.10;;;4.90;;
69854;SDS011;57146;48.140;16.304;2023-07-24T10:34:44;10.90;;;5.10;;
69854;SDS011;57146;48.140;16.304;2023-07-24T10:37:11;8.35;;;5.18;;
69854;SDS011;57146;48.140;16.304;2023-07-24T10:39:41;8.70;;;5.32;;
69854;SDS011;57146;48.140;16.304;2023-07-24T10:42:08;9.05;;;6.10;;
69854;SDS011;57146;48.140;16.304;2023-07-24T10:44:37;8.13;;;5.07;;
69854;SDS011;57146;48.140;16.304;2023-07-24T10:47:05;8.67;;;4.97;;
69854;SDS011;57146;48.140;16.304;2023-07-24T10:49:33;9.32;;;5.30;;
69854;SDS011;57146;48.140;16.304;2023-07-24T10:52:01;8.57;;;5.00;;
69854;SDS011;57146;48.140;16.304;2023-07-24T10:54:31;8.55;;;5.15;;
69854;SDS011;57146;48.140;16.304;2023-07-24T10:56:59;8.25;;;5.53;;
69854;SDS011;57146;48.140;16.304;2023-07-24T10:59:40;9.40;;;5.53;;
69854;SDS011;57146;48.140;16.304;2023-07-24T11:02:07;8.88;;;6.22;;
69854;SDS011;57146;48.140;16.304;2023-07-24T11:04:34;9.68;;;5.65;;
69854;SDS011;57146;48.140;16.304;2023-07-24T11:07:01;9.98;;;5.97;;
69854;SDS011;57146;48.140;16.304;2023-07-24T11:09:35;8.50;;;5.82;;
69854;SDS011;57146;48.140;16.304;2023-07-24T11:14:48;10.73;;;6.97;;
69854;SDS011;57146;48.140;16.304;2023-07-24T11:17:44;10.30;;;6.45;;
69854;SDS011;57146;48.140;16.304;2023-07-24T11:20:12;8.82;;;6.55;;
69854;SDS011;57146;48.140;16.304;2023-07-24T11:22:41;11.85;;;6.32;;
69854;SDS011;57146;48.140;16.304;2023-07-24T11:25:10;9.20;;;6.17;;
69854;SDS011;57146;48.140;16.304;2023-07-24T11:27:43;11.10;;;6.80;;
69854;SDS011;57146;48.140;16.304;2023-07-24T11:30:37;13.38;;;6.82;;
69854;SDS011;57146;48.140;16.304;2023-07-24T11:33:05;14.38;;;6.85;;
69854;SDS011;57146;48.140;16.304;2023-07-24T11:35:34;14.50;;;6.70;;
69854;SDS011;57146;48.140;16.304;2023-07-24T11:38:02;13.57;;;7.03;;
69854;SDS011;57146;48.140;16.304;2023-07-24T11:40:33;14.07;;;6.72;;
69854;SDS011;57146;48.140;16.304;2023-07-24T11:43:14;11.48;;;7.95;;
69854;SDS011;57146;48.140;16.304;2023-07-24T11:45:46;13.60;;;6.78;;
69854;SDS011;57146;48.140;16.304;2023-07-24T11:48:14;11.70;;;6.72;;
69854;SDS011;57146;48.140;16.304;2023-07-24T11:50:42;10.43;;;7.10;;
69854;SDS011;57146;48.140;16.304;2023-07-24T11:53:26;11.00;;;6.95;;
69854;SDS011;57146;48.140;16.304;2023-07-24T11:55:56;11.18;;;6.63;;
69854;SDS011;57146;48.140;16.304;2023-07-24T11:58:28;9.13;;;6.95;;
69854;SDS011;57146;48.140;16.304;2023-07-24T12:00:56;9.25;;;6.30;;
69854;SDS011;57146;48.140;16.304;2023-07-24T12:03:27;9.40;;;6.10;;
69854;SDS011;57146;48.140;16.304;2023-07-24T12:05:56;10.38;;;6.55;;
69854;SDS011;57146;48.140;16.304;2023-07-24T12:08:33;9.77;;;6.47;;
69854;SDS011;57146;48.140;16.304;2023-07-24T12:11:02;15.77;;;6.85;;
69854;SDS011;57146;48.140;16.304;2023-07-24T12:13:29;12.80;;;6.80;;
69854;SDS011;57146;48.140;16.304;2023-07-24T12:15:56;11.43;;;7.43;;
69854;SDS011;57146;48.140;16.304;2023-07-24T12:18:24;10.07;;;7.22;;
69854;SDS011;57146;48.140;16.304;2023-07-24T12:20:51;10.15;;;6.47;;
69854;SDS011;57146;48.140;16.304;2023-07-24T12:23:18;9.65;;;7.63;;
69854;SDS011;57146;48.140;16.304;2023-07-24T12:25:45;10.52;;;7.20;;
69854;SDS011;57146;48.140;16.304;2023-07-24T12:28:12;14.00;;;7.57;;
69854;SDS011;57146;48.140;16.304;2023-07-24T12:30:39;10.75;;;6.43;;
69854;SDS011;57146;48.140;16.304;2023-07-24T12:33:06;16.85;;;8.23;;
69854;SDS011;57146;48.140;16.304;2023-07-24T12:35:34;11.57;;;7.18;;
69854;SDS011;57146;48.140;16.304;2023-07-24T12:38:01;15.38;;;7.18;;
69854;SDS011;57146;48.140;16.304;2023-07-24T12:40:29;13.30;;;8.40;;
69854;SDS011;57146;48.140;16.304;2023-07-24T12:42:55;21.38;;;7.25;;
69854;SDS011;57146;48.140;16.304;2023-07-24T12:45:23;22.95;;;8.02;;
69854;SDS011;57146;48.140;16.304;2023-07-24T12:47:49;14.90;;;7.85;;
69854;SDS011;57146;48.140;16.304;2023-07-24T12:50:16;10.13;;;7.60;;
69854;SDS011;57146;48.140;16.304;2023-07-24T12:52:44;11.50;;;7.43;;
69854;SDS011;57146;48.140;16.304;2023-07-24T12:55:36;15.18;;;6.72;;
69854;SDS011;57146;48.140;16.304;2023-07-24T12:58:04;12.65;;;7.20;;
69854;SDS011;57146;48.140;16.304;2023-07-24T13:00:56;12.50;;;8.38;;
69854;SDS011;57146;48.140;16.304;2023-07-24T13:03:24;13.85;;;8.32;;
69854;SDS011;57146;48.140;16.304;2023-07-24T13:05:51;11.87;;;8.17;;
69854;SDS011;57146;48.140;16.304;2023-07-24T13:08:18;10.48;;;6.85;;
69854;SDS011;57146;48.140;16.304;2023-07-24T13:10:47;15.85;;;8.00;;
69854;SDS011;57146;48.140;16.304;2023-07-24T13:13:14;15.00;;;8.60;;
69854;SDS011;57146;48.140;16.304;2023-07-24T13:15:41;12.55;;;8.02;;
69854;SDS011;57146;48.140;16.304;2023-07-24T13:18:09;12.23;;;8.37;;
69854;SDS011;57146;48.140;16.304;2023-07-24T13:20:53;15.57;;;8.05;;
69854;SDS011;57146;48.140;16.304;2023-07-24T13:23:20;13.80;;;9.20;;
69854;SDS011;57146;48.140;16.304;2023-07-24T13:25:47;13.40;;;7.78;;
69854;SDS011;57146;48.140;16.304;2023-07-24T13:28:14;11.70;;;8.50;;
69854;SDS011;57146;48.140;16.304;2023-07-24T13:30:43;12.20;;;7.97;;
69854;SDS011;57146;48.140;16.304;2023-07-24T13:33:11;17.17;;;8.10;;
69854;SDS011;57146;48.140;16.304;2023-07-24T13:35:38;18.58;;;7.80;;
69854;SDS011;57146;48.140;16.304;2023-07-24T13:38:05;12.85;;;7.47;;
69854;SDS011;57146;48.140;16.304;2023-07-24T13:40:36;10.88;;;7.85;;
69854;SDS011;57146;48.140;16.304;2023-07-24T13:43:05;14.07;;;8.50;;
69854;SDS011;57146;48.140;16.304;2023-07-24T13:45:32;14.43;;;8.32;;
69854;SDS011;57146;48.140;16.304;2023-07-24T13:47:59;14.20;;;8.82;;
69854;SDS011;57146;48.140;16.304;2023-07-24T13:50:26;14.77;;;8.77;;
69854;SDS011;57146;48.140;16.304;2023-07-24T13:52:53;12.75;;;9.07;;
69854;SDS011;57146;48.140;16.304;2023-07-24T13:55:20;11.47;;;7.83;;
69854;SDS011;57146;48.140;16.304;2023-07-24T13:57:47;12.77;;;8.07;;
69854;SDS011;57146;48.140;16.304;2023-07-24T14:00:15;20.27;;;8.02;;
69854;SDS011;57146;48.140;16.304;2023-07-24T14:02:43;12.50;;;8.00;;
69854;SDS011;57146;48.140;16.304;2023-07-24T14:05:10;13.75;;;8.00;;
69854;SDS011;57146;48.140;16.304;2023-07-24T14:07:37;11.30;;;7.30;;
69854;SDS011;57146;48.140;16.304;2023-07-24T14:10:04;12.90;;;8.77;;
69854;SDS011;57146;48.140;16.304;2023-07-24T14:12:32;16.95;;;7.53;;
69854;SDS011;57146;48.140;16.304;2023-07-24T14:14:59;13.55;;;8.73;;
69854;SDS011;57146;48.140;16.304;2023-07-24T14:17:27;12.57;;;8.18;;
69854;SDS011;57146;48.140;16.304;2023-07-24T14:19:54;11.03;;;8.80;;
69854;SDS011;57146;48.140;16.304;2023-07-24T14:22:22;22.40;;;8.75;;
69854;SDS011;57146;48.140;16.304;2023-07-24T14:24:53;12.45;;;7.90;;
69854;SDS011;57146;48.140;16.304;2023-07-24T14:27:20;11.95;;;8.13;;
69854;SDS011;57146;48.140;16.304;2023-07-24T14:29:46;11.77;;;7.90;;
69854;SDS011;57146;48.140;16.304;2023-07-24T14:32:15;14.10;;;8.67;;
69854;SDS011;57146;48.140;16.304;2023-07-24T14:34:42;11.73;;;7.97;;
69854;SDS011;57146;48.140;16.304;2023-07-24T14:37:09;11.00;;;7.32;;
69854;SDS011;57146;48.140;16.304;2023-07-24T14:39:36;10.98;;;7.57;;
69854;SDS011;57146;48.140;16.304;2023-07-24T14:42:04;12.20;;;7.70;;
69854;SDS011;57146;48.140;16.304;2023-07-24T14:44:32;25.03;;;7.97;;
69854;SDS011;57146;48.140;16.304;2023-07-24T14:47:00;12.02;;;7.72;;
69854;SDS011;57146;48.140;16.304;2023-07-24T14:49:27;9.95;;;7.05;;